createdAt,value
2017-12-15T00:02:14.852Z,28.02
2017-12-15T00:04:41.607Z,30.42
2017-12-15T00:07:08.352Z,30.23
2017-12-15T00:09:35.076Z,27.85
2017-12-15T00:12:01.800Z,27.37
2017-12-15T00:14:27.770Z,30.50
2017-12-15T00:16:53.760Z,28.10
2017-12-15T00:19:19.727Z,29.55
2017-12-15T00:21:45.717Z,29.35
2017-12-15T00:24:12.476Z,28.90
2017-12-15T00:26:38.450Z,30.50
2017-12-15T00:29:04.432Z,26.00
2017-12-15T00:31:30.429Z,26.73
2017-12-15T00:33:56.412Z,25.98
2017-12-15T00:36:22.372Z,24.25
2017-12-15T00:38:49.589Z,30.33
2017-12-15T00:41:15.538Z,28.25
2017-12-15T00:43:41.508Z,27.48
2017-12-15T00:46:07.494Z,28.55
2017-12-15T00:48:33.470Z,27.77
2017-12-15T00:50:59.443Z,29.23
2017-12-15T00:53:25.420Z,25.88
2017-12-15T00:55:52.139Z,28.95
2017-12-15T00:58:18.119Z,24.02
2017-12-15T01:00:44.297Z,29.67
2017-12-15T01:03:10.249Z,24.55
2017-12-15T01:05:36.200Z,25.10
2017-12-15T01:08:02.384Z,23.40
2017-12-15T01:10:29.091Z,25.15
2017-12-15T01:12:55.044Z,29.20
2017-12-15T01:15:21.772Z,23.10
2017-12-15T01:17:48.492Z,23.13
2017-12-15T01:20:14.472Z,27.60
2017-12-15T01:22:40.548Z,24.13
2017-12-15T01:25:08.005Z,24.95
2017-12-15T01:27:33.953Z,23.55
2017-12-15T01:29:59.965Z,27.70
2017-12-15T01:32:26.684Z,23.98
2017-12-15T01:34:52.659Z,25.58
2017-12-15T01:37:18.656Z,26.60
2017-12-15T01:39:45.381Z,25.98
2017-12-15T01:42:12.093Z,26.17
2017-12-15T01:44:38.101Z,26.95
2017-12-15T01:47:04.082Z,23.73
2017-12-15T01:49:30.028Z,23.87
2017-12-15T01:51:56.008Z,25.88
2017-12-15T01:54:22.716Z,23.70
2017-12-15T01:56:48.700Z,24.60
2017-12-15T01:59:14.662Z,21.67
2017-12-15T02:01:40.628Z,24.58
2017-12-15T02:04:06.632Z,26.27
2017-12-15T02:06:33.336Z,24.75
2017-12-15T02:08:59.299Z,26.80
2017-12-15T02:11:26.028Z,20.70
2017-12-15T02:13:52.736Z,23.57
2017-12-15T02:16:18.700Z,24.83
2017-12-15T02:18:45.408Z,23.77
2017-12-15T02:21:11.362Z,20.80
2017-12-15T02:23:37.332Z,20.53
2017-12-15T02:26:03.365Z,25.30
2017-12-15T02:28:29.325Z,25.88
2017-12-15T02:30:55.323Z,25.15
2017-12-15T02:33:22.049Z,24.40
2017-12-15T02:35:48.006Z,20.98
2017-12-15T02:38:13.977Z,26.67
2017-12-15T02:40:40.125Z,24.90
2017-12-15T02:43:06.841Z,22.85
2017-12-15T02:45:32.804Z,24.70
2017-12-15T02:47:59.735Z,26.10
2017-12-15T02:50:26.429Z,24.10
2017-12-15T02:52:52.381Z,20.17
2017-12-15T02:55:18.339Z,22.70
2017-12-15T02:57:44.297Z,23.05
2017-12-15T03:00:10.264Z,29.50
2017-12-15T03:02:37.307Z,27.03
2017-12-15T03:05:04.006Z,24.20
2017-12-15T03:07:29.973Z,23.57
2017-12-15T03:09:56.713Z,26.40
2017-12-15T03:12:23.416Z,23.45
2017-12-15T03:14:49.373Z,23.00
2017-12-15T03:17:16.096Z,24.17
2017-12-15T03:19:42.064Z,27.55
2017-12-15T03:22:08.049Z,25.90
2017-12-15T03:24:34.740Z,21.77
2017-12-15T03:27:00.709Z,24.37
2017-12-15T03:29:27.449Z,25.60
2017-12-15T03:31:54.168Z,25.92
2017-12-15T03:34:20.118Z,26.73
2017-12-15T03:36:46.836Z,24.75
2017-12-15T03:39:12.825Z,24.60
2017-12-15T03:41:38.796Z,23.55
2017-12-15T03:44:04.792Z,26.10
2017-12-15T03:46:30.757Z,20.83
2017-12-15T03:48:56.712Z,21.30
2017-12-15T03:51:22.690Z,20.20
2017-12-15T03:53:48.652Z,24.15
2017-12-15T03:56:14.612Z,21.03
2017-12-15T03:58:41.340Z,24.98
2017-12-15T04:01:07.309Z,21.67
2017-12-15T04:03:33.265Z,19.27
2017-12-15T04:05:59.236Z,22.90
2017-12-15T04:08:25.208Z,24.05
2017-12-15T04:10:51.171Z,21.27
2017-12-15T04:13:17.152Z,20.37
2017-12-15T04:15:43.125Z,27.05
2017-12-15T04:18:09.088Z,24.37
2017-12-15T04:20:35.228Z,23.25
2017-12-15T04:23:01.214Z,26.33
2017-12-15T04:25:27.175Z,24.20
2017-12-15T04:27:53.170Z,22.65
2017-12-15T04:30:19.169Z,25.77
2017-12-15T04:32:45.147Z,22.23
2017-12-15T04:35:11.856Z,26.73
2017-12-15T04:37:37.864Z,22.58
2017-12-15T04:40:03.844Z,26.85
2017-12-15T04:42:29.838Z,24.35
2017-12-15T04:44:55.814Z,31.42
2017-12-15T04:47:21.813Z,24.17
2017-12-15T04:49:47.813Z,23.13
2017-12-15T04:52:14.553Z,23.52
2017-12-15T04:54:40.522Z,25.63
2017-12-15T04:57:06.491Z,22.58
2017-12-15T04:59:32.516Z,23.20
2017-12-15T05:01:58.492Z,26.45
2017-12-15T05:04:24.477Z,23.30
2017-12-15T05:06:51.208Z,27.80
2017-12-15T05:09:17.948Z,25.40
2017-12-15T05:11:44.254Z,22.05
2017-12-15T05:14:10.260Z,23.02
2017-12-15T05:16:36.228Z,21.45
2017-12-15T05:19:02.992Z,22.17
2017-12-15T05:21:28.966Z,22.90
2017-12-15T05:23:54.936Z,22.92
2017-12-15T05:26:20.958Z,21.45
2017-12-15T05:28:46.916Z,21.67
2017-12-15T05:31:19.799Z,28.85
2017-12-15T05:33:45.773Z,30.02
2017-12-15T05:36:11.762Z,28.75
2017-12-15T05:38:38.484Z,23.60
2017-12-15T05:41:04.480Z,27.70
2017-12-15T05:43:30.454Z,25.52
2017-12-15T05:45:57.184Z,24.42
2017-12-15T05:48:23.920Z,26.40
2017-12-15T05:50:50.693Z,29.30
2017-12-15T05:53:16.899Z,29.60
2017-12-15T05:55:42.902Z,28.77
2017-12-15T05:58:08.868Z,26.92
2017-12-15T06:00:34.890Z,27.37
2017-12-15T06:03:00.852Z,27.48
2017-12-15T06:05:26.805Z,31.77
2017-12-15T06:07:53.534Z,27.37
2017-12-15T06:10:20.263Z,29.00
2017-12-15T06:12:46.241Z,28.20
2017-12-15T06:15:12.241Z,28.70
2017-12-15T06:17:38.212Z,34.17
2017-12-15T06:20:04.174Z,28.08
2017-12-15T06:22:30.917Z,28.62
2017-12-15T06:24:56.852Z,28.02
2017-12-15T06:27:22.824Z,28.73
2017-12-15T06:29:48.840Z,32.20
2017-12-15T06:32:14.825Z,28.07
2017-12-15T06:34:40.826Z,31.48
2017-12-15T06:37:06.824Z,32.63
2017-12-15T06:39:33.540Z,32.92
2017-12-15T06:41:59.510Z,36.43
2017-12-15T06:44:25.484Z,32.00
2017-12-15T06:46:51.453Z,32.90
2017-12-15T06:49:17.436Z,31.33
2017-12-15T06:51:43.396Z,31.80
2017-12-15T06:54:09.371Z,30.37
2017-12-15T06:56:35.614Z,34.35
2017-12-15T06:59:01.569Z,35.63
2017-12-15T07:01:27.536Z,29.37
2017-12-15T07:03:53.528Z,31.10
2017-12-15T07:06:19.498Z,31.15
2017-12-15T07:08:45.456Z,29.52
2017-12-15T07:11:11.444Z,27.85
2017-12-15T07:13:38.160Z,28.37
2017-12-15T07:16:04.116Z,31.73
2017-12-15T07:18:30.871Z,29.23
2017-12-15T07:20:56.832Z,27.60
2017-12-15T07:23:22.831Z,31.77
2017-12-15T07:25:48.816Z,31.87
2017-12-15T07:28:15.573Z,27.37
2017-12-15T07:30:41.548Z,32.20
2017-12-15T07:33:07.529Z,28.43
2017-12-15T07:35:33.524Z,34.60
2017-12-15T07:38:00.220Z,36.28
2017-12-15T07:40:26.204Z,32.58
2017-12-15T07:42:52.189Z,38.25
2017-12-15T07:45:18.148Z,32.00
2017-12-15T07:47:44.164Z,32.80
2017-12-15T07:50:10.178Z,29.40
2017-12-15T07:52:36.147Z,31.73
2017-12-15T07:55:02.132Z,36.08
2017-12-15T07:57:28.128Z,28.87
2017-12-15T07:59:54.824Z,31.77
2017-12-15T08:02:20.796Z,32.03
2017-12-15T08:04:47.536Z,35.25
2017-12-15T08:07:14.248Z,36.60
2017-12-15T08:09:40.211Z,38.60
2017-12-15T08:12:06.222Z,32.83
2017-12-15T08:14:32.194Z,33.65
2017-12-15T08:16:58.184Z,35.40
2017-12-15T08:19:24.152Z,32.63
2017-12-15T08:21:50.885Z,33.95
2017-12-15T08:24:16.874Z,35.33
2017-12-15T08:26:42.829Z,36.25
2017-12-15T08:29:08.832Z,36.00
2017-12-15T08:31:34.842Z,36.58
2017-12-15T08:34:00.804Z,34.00
2017-12-15T08:36:26.771Z,38.40
2017-12-15T08:38:52.789Z,37.40
2017-12-15T08:41:18.747Z,40.38
2017-12-15T08:43:44.736Z,40.50
2017-12-15T08:46:10.719Z,35.90
2017-12-15T08:48:37.450Z,36.83
2017-12-15T08:51:03.431Z,40.27
2017-12-15T08:53:29.698Z,34.78
2017-12-15T08:55:55.657Z,40.25
2017-12-15T08:58:21.608Z,36.60
2017-12-15T09:00:47.600Z,40.65
2017-12-15T09:03:13.653Z,40.55
2017-12-15T09:05:40.317Z,43.03
2017-12-15T09:08:06.315Z,39.40
2017-12-15T09:10:32.286Z,40.63
2017-12-15T09:12:59.040Z,36.63
2017-12-15T09:15:25.229Z,40.03
2017-12-15T09:17:51.216Z,36.00
2017-12-15T09:20:17.196Z,37.28
2017-12-15T09:22:43.904Z,37.23
2017-12-15T09:25:09.895Z,37.70
2017-12-15T09:27:35.865Z,35.67
2017-12-15T09:30:01.849Z,36.22
2017-12-15T09:32:27.804Z,35.97
2017-12-15T09:34:54.577Z,36.92
2017-12-15T09:37:20.572Z,34.80
2017-12-15T09:39:47.276Z,33.13
2017-12-15T09:42:13.246Z,36.23
2017-12-15T09:44:39.224Z,36.50
2017-12-15T09:47:05.189Z,36.28
2017-12-15T09:49:31.504Z,36.58
2017-12-15T09:51:58.228Z,35.15
2017-12-15T09:54:24.188Z,35.27
2017-12-15T09:56:50.522Z,36.95
2017-12-15T09:59:16.520Z,39.90
2017-12-15T10:01:43.270Z,36.63
2017-12-15T10:04:09.481Z,45.12
2017-12-15T10:06:36.196Z,42.88
2017-12-15T10:09:02.175Z,40.50
2017-12-15T10:11:28.193Z,41.88
2017-12-15T10:13:54.164Z,38.90
2017-12-15T10:16:20.144Z,45.03
2017-12-15T10:18:46.136Z,45.30
2017-12-15T10:21:12.858Z,41.58
2017-12-15T10:23:38.807Z,46.07
2017-12-15T10:26:05.545Z,44.28
2017-12-15T10:28:31.516Z,47.80
2017-12-15T10:30:57.513Z,43.30
2017-12-15T10:33:23.509Z,49.58
2017-12-15T10:35:49.495Z,42.03
2017-12-15T10:38:15.496Z,43.08
2017-12-15T10:40:41.452Z,47.43
2017-12-15T10:43:08.180Z,39.75
2017-12-15T10:45:34.425Z,42.10
2017-12-15T10:48:01.135Z,42.10
2017-12-15T10:50:27.100Z,36.90
2017-12-15T10:52:53.092Z,39.08
2017-12-15T10:55:19.093Z,39.92
2017-12-15T10:57:45.344Z,40.67
2017-12-15T11:00:12.104Z,39.73
2017-12-15T11:02:38.093Z,38.63
2017-12-15T11:05:04.940Z,35.73
2017-12-15T11:07:30.940Z,42.58
2017-12-15T11:09:56.926Z,39.80
2017-12-15T11:12:22.924Z,36.95
2017-12-15T11:14:49.621Z,37.75
2017-12-15T11:17:15.595Z,37.92
2017-12-15T11:19:41.604Z,38.13
2017-12-15T11:22:08.324Z,36.22
2017-12-15T11:24:34.283Z,39.90
2017-12-15T11:27:00.464Z,34.78
2017-12-15T11:29:26.466Z,38.60
2017-12-15T11:31:52.442Z,36.58
2017-12-15T11:34:18.468Z,39.72
2017-12-15T11:36:44.436Z,38.35
2017-12-15T11:39:10.412Z,41.08
2017-12-15T11:41:36.604Z,43.70
2017-12-15T11:44:02.564Z,38.85
2017-12-15T11:46:28.550Z,37.53
2017-12-15T11:48:54.551Z,43.05
2017-12-15T11:51:20.554Z,39.53
2017-12-15T11:53:46.524Z,36.63
2017-12-15T11:56:13.592Z,38.40
2017-12-15T11:58:39.584Z,39.25
2017-12-15T12:01:05.572Z,35.03
2017-12-15T12:03:31.664Z,41.13
2017-12-15T12:05:57.665Z,38.10
2017-12-15T12:08:31.420Z,43.90
2017-12-15T12:10:57.396Z,38.95
2017-12-15T12:13:24.149Z,37.10
2017-12-15T12:15:50.109Z,37.35
2017-12-15T12:18:16.979Z,38.00
2017-12-15T12:20:42.965Z,36.00
2017-12-15T12:23:08.946Z,36.53
2017-12-15T12:25:34.960Z,38.75
2017-12-15T12:28:01.663Z,36.58
2017-12-15T12:30:27.652Z,39.17
2017-12-15T12:32:53.645Z,36.03
2017-12-15T12:35:20.356Z,34.22
2017-12-15T12:37:46.312Z,37.38
2017-12-15T12:40:14.108Z,39.28
2017-12-15T12:42:40.101Z,37.55
2017-12-15T12:45:06.080Z,34.58
2017-12-15T12:47:32.840Z,36.92
2017-12-15T12:49:59.533Z,33.30
2017-12-15T12:52:25.526Z,37.20
2017-12-15T12:54:51.480Z,34.30
2017-12-15T12:57:17.452Z,35.30
2017-12-15T12:59:44.171Z,33.17
2017-12-15T13:02:10.157Z,38.83
2017-12-15T13:04:36.132Z,88.73
2017-12-15T13:07:02.841Z,83.62
2017-12-15T13:09:28.854Z,61.25
2017-12-15T13:11:54.836Z,34.22
2017-12-15T13:14:20.796Z,31.23
2017-12-15T13:16:46.945Z,30.92
2017-12-15T13:19:13.663Z,33.28
2017-12-15T13:21:39.632Z,33.58
2017-12-15T13:24:05.609Z,36.58
2017-12-15T13:26:32.397Z,33.92
2017-12-15T13:28:58.372Z,41.53
2017-12-15T13:31:25.532Z,36.65
2017-12-15T13:33:52.244Z,35.30
2017-12-15T13:36:18.197Z,39.23
2017-12-15T13:38:45.144Z,42.45
2017-12-15T13:41:11.868Z,43.53
2017-12-15T13:43:38.576Z,38.97
2017-12-15T13:46:04.544Z,39.83
2017-12-15T13:48:31.302Z,43.17
2017-12-15T13:50:57.276Z,50.20
2017-12-15T13:53:23.258Z,42.13
2017-12-15T13:55:49.220Z,46.85
2017-12-15T13:58:15.211Z,45.33
2017-12-15T14:00:41.404Z,47.67
2017-12-15T14:03:08.109Z,56.20
2017-12-15T14:05:34.091Z,51.80
2017-12-15T14:08:00.068Z,50.85
2017-12-15T14:10:26.778Z,47.75
2017-12-15T14:12:52.737Z,46.90
2017-12-15T14:15:19.485Z,46.08
2017-12-15T14:17:45.452Z,87.80
2017-12-15T14:20:11.436Z,68.12
2017-12-15T14:22:37.412Z,74.75
2017-12-15T14:25:04.852Z,48.00
2017-12-15T14:27:30.853Z,49.60
2017-12-15T14:29:57.028Z,47.50
2017-12-15T14:32:22.992Z,45.30
2017-12-15T14:34:48.971Z,50.55
2017-12-15T14:37:16.454Z,46.00
2017-12-15T14:39:42.429Z,50.93
2017-12-15T14:42:09.296Z,47.08
2017-12-15T14:44:36.016Z,46.17
2017-12-15T14:47:02.029Z,50.50
2017-12-15T14:49:28.008Z,47.30
2017-12-15T14:51:53.997Z,50.12
2017-12-15T14:54:20.705Z,49.03
2017-12-15T14:56:46.696Z,46.15
2017-12-15T14:59:12.679Z,48.60
2017-12-15T15:01:38.683Z,47.95
2017-12-15T15:04:06.180Z,52.15
2017-12-15T15:06:32.187Z,46.40
2017-12-15T15:08:58.897Z,48.60
2017-12-15T15:11:24.867Z,47.58
2017-12-15T15:13:57.840Z,53.60
2017-12-15T15:16:24.580Z,49.30
2017-12-15T15:18:51.293Z,49.95
2017-12-15T15:21:17.251Z,51.75
2017-12-15T15:23:43.257Z,55.80
2017-12-15T15:26:09.964Z,52.28
2017-12-15T15:28:35.952Z,52.97
2017-12-15T15:31:01.945Z,50.38
2017-12-15T15:33:28.673Z,52.95
2017-12-15T15:35:55.396Z,56.33
2017-12-15T15:38:21.380Z,56.92
2017-12-15T15:40:47.392Z,52.07
2017-12-15T15:43:13.361Z,53.38
2017-12-15T15:45:39.353Z,56.75
2017-12-15T15:48:05.319Z,58.40
2017-12-15T15:50:32.031Z,58.50
2017-12-15T15:52:58.028Z,51.60
2017-12-15T15:55:24.021Z,49.40
2017-12-15T15:57:50.010Z,58.33
2017-12-15T16:00:16.016Z,55.20
2017-12-15T16:02:41.980Z,59.97
2017-12-15T16:05:07.957Z,61.05
2017-12-15T16:07:33.940Z,60.15
2017-12-15T16:09:59.918Z,62.73
2017-12-15T16:12:25.900Z,59.00
2017-12-15T16:14:51.920Z,56.03
2017-12-15T16:17:17.904Z,65.72
2017-12-15T16:19:44.640Z,55.95
2017-12-15T16:22:11.368Z,59.58
2017-12-15T16:24:38.084Z,53.13
2017-12-15T16:27:04.321Z,65.37
2017-12-15T16:29:30.496Z,53.60
2017-12-15T16:31:56.501Z,53.40
2017-12-15T16:34:23.313Z,52.08
2017-12-15T16:36:49.295Z,54.05
2017-12-15T16:39:15.264Z,56.58
2017-12-15T16:41:42.008Z,49.95
2017-12-15T16:44:08.732Z,57.15
2017-12-15T16:46:34.738Z,52.47
2017-12-15T16:49:00.713Z,57.72
2017-12-15T16:51:26.692Z,53.95
2017-12-15T16:53:52.690Z,53.75
2017-12-15T16:56:18.700Z,52.20
2017-12-15T16:58:44.669Z,53.53
2017-12-15T17:01:10.889Z,52.70
2017-12-15T17:03:36.870Z,45.20
2017-12-15T17:06:02.842Z,43.03
2017-12-15T17:08:29.588Z,44.13
2017-12-15T17:10:56.301Z,44.72
2017-12-15T17:13:22.288Z,41.50
2017-12-15T17:15:48.271Z,40.83
2017-12-15T17:18:14.976Z,44.22
2017-12-15T17:20:40.964Z,45.33
2017-12-15T17:23:07.224Z,45.25
2017-12-15T17:25:33.200Z,42.88
2017-12-15T17:27:59.173Z,39.15
2017-12-15T17:30:25.196Z,41.47
2017-12-15T17:32:51.169Z,68.55
2017-12-15T17:35:17.192Z,41.33
2017-12-15T17:37:43.168Z,42.42
2017-12-15T17:40:09.156Z,38.45
2017-12-15T17:42:35.142Z,43.08
2017-12-15T17:45:01.171Z,44.10
2017-12-15T17:47:27.104Z,44.10
2017-12-15T17:49:53.117Z,46.37
2017-12-15T17:52:19.116Z,38.10
2017-12-15T17:54:45.828Z,42.65
2017-12-15T17:57:11.974Z,38.10
2017-12-15T17:59:38.700Z,40.67
2017-12-15T18:02:04.665Z,45.40
2017-12-15T18:04:30.640Z,36.50
2017-12-15T18:06:56.622Z,35.40
2017-12-15T18:09:22.592Z,35.80
2017-12-15T18:11:48.558Z,42.55
2017-12-15T18:14:14.551Z,38.85
2017-12-15T18:16:41.277Z,36.73
2017-12-15T18:19:08.000Z,46.67
2017-12-15T18:21:33.973Z,32.80
2017-12-15T18:23:59.979Z,35.67
2017-12-15T18:26:26.700Z,32.72
2017-12-15T18:28:53.409Z,39.03
2017-12-15T18:31:19.412Z,33.92
2017-12-15T18:33:45.368Z,33.20
2017-12-15T18:36:11.355Z,37.42
2017-12-15T18:38:38.133Z,35.50
2017-12-15T18:41:04.105Z,36.00
2017-12-15T18:43:30.108Z,35.70
2017-12-15T18:45:56.080Z,32.43
2017-12-15T18:48:22.060Z,37.35
2017-12-15T18:50:48.028Z,39.83
2017-12-15T18:53:14.049Z,34.05
2017-12-15T18:55:40.018Z,36.40
2017-12-15T18:58:06.007Z,35.53
2017-12-15T19:00:31.969Z,33.92
2017-12-15T19:02:57.947Z,32.47
2017-12-15T19:05:23.968Z,36.60
2017-12-15T19:07:49.986Z,34.53
2017-12-15T19:10:15.956Z,28.50
2017-12-15T19:12:42.133Z,34.85
2017-12-15T19:15:08.841Z,28.48
2017-12-15T19:17:34.812Z,32.22
2017-12-15T19:20:00.825Z,33.13
2017-12-15T19:22:27.539Z,35.57
2017-12-15T19:24:53.525Z,35.53
2017-12-15T19:27:19.545Z,34.37
2017-12-15T19:29:45.502Z,32.33
2017-12-15T19:32:11.695Z,28.52
2017-12-15T19:34:37.705Z,32.53
2017-12-15T19:37:03.674Z,35.17
2017-12-15T19:39:29.665Z,31.37
2017-12-15T19:41:55.685Z,34.05
2017-12-15T19:44:21.653Z,36.22
2017-12-15T19:46:47.677Z,29.57
2017-12-15T19:49:13.678Z,28.17
2017-12-15T19:51:39.648Z,36.38
2017-12-15T19:54:06.376Z,28.33
2017-12-15T19:56:33.090Z,32.80
2017-12-15T19:58:59.069Z,38.38
2017-12-15T20:03:57.816Z,29.98
2017-12-15T20:06:23.812Z,31.23
2017-12-15T20:08:49.821Z,31.33
2017-12-15T20:11:15.832Z,34.00
2017-12-15T20:13:41.848Z,30.77
2017-12-15T20:16:07.852Z,32.38
2017-12-15T20:18:34.583Z,36.50
2017-12-15T20:21:01.305Z,32.83
2017-12-15T20:23:27.306Z,36.70
2017-12-15T20:25:53.272Z,33.90
2017-12-15T20:28:19.983Z,38.08
2017-12-15T20:30:46.217Z,40.35
2017-12-15T20:33:12.230Z,35.47
2017-12-15T20:35:38.214Z,33.30
2017-12-15T20:38:04.188Z,34.97
2017-12-15T20:40:30.155Z,34.80
2017-12-15T20:42:56.121Z,34.15
2017-12-15T20:45:22.348Z,31.12
2017-12-15T20:47:48.330Z,35.60
2017-12-15T20:50:14.308Z,34.63
2017-12-15T20:52:41.031Z,32.03
2017-12-15T20:55:07.000Z,40.10
2017-12-15T20:57:32.961Z,35.75
2017-12-15T20:59:58.945Z,32.42
2017-12-15T21:02:24.968Z,33.22
2017-12-15T21:04:50.956Z,35.50
2017-12-15T21:07:17.886Z,33.13
2017-12-15T21:09:43.841Z,33.20
2017-12-15T21:12:09.832Z,31.45
2017-12-15T21:14:35.834Z,31.12
2017-12-15T21:17:01.864Z,31.50
2017-12-15T21:19:28.593Z,39.53
2017-12-15T21:21:54.569Z,36.47
2017-12-15T21:24:21.484Z,33.33
2017-12-15T21:26:48.208Z,31.98
2017-12-15T21:29:14.200Z,28.73
2017-12-15T21:31:40.364Z,28.13
2017-12-15T21:34:06.354Z,34.15
2017-12-15T21:36:32.341Z,27.85
2017-12-15T21:38:58.333Z,30.53
2017-12-15T21:41:25.077Z,29.23
2017-12-15T21:43:51.809Z,31.23
2017-12-15T21:46:18.032Z,31.60
2017-12-15T21:48:43.988Z,35.70
2017-12-15T21:51:09.981Z,31.15
2017-12-15T21:53:36.684Z,33.00
2017-12-15T21:56:02.672Z,31.25
2017-12-15T21:58:28.666Z,33.15
2017-12-15T22:00:55.401Z,34.85
2017-12-15T22:03:22.113Z,53.33
2017-12-15T22:05:48.096Z,29.83
2017-12-15T22:08:14.088Z,34.03
2017-12-15T22:10:40.808Z,30.20
2017-12-15T22:13:06.805Z,35.00
2017-12-15T22:15:32.949Z,35.53
2017-12-15T22:17:58.929Z,31.48
2017-12-15T22:20:24.920Z,81.93
2017-12-15T22:22:51.653Z,69.10
2017-12-15T22:25:18.368Z,33.83
2017-12-15T22:27:44.345Z,31.00
2017-12-15T22:30:10.329Z,31.62
2017-12-15T22:32:37.108Z,31.15
2017-12-15T22:35:03.035Z,31.70
2017-12-15T22:37:29.213Z,34.47
2017-12-15T22:39:55.173Z,30.20
2017-12-15T22:42:21.182Z,28.85
2017-12-15T22:44:47.188Z,32.40
2017-12-15T22:47:13.890Z,30.73
2017-12-15T22:49:39.872Z,29.60
2017-12-15T22:52:05.856Z,31.60
2017-12-15T22:54:31.828Z,29.65
2017-12-15T22:56:57.788Z,30.95
2017-12-15T22:59:23.760Z,28.85
2017-12-15T23:01:49.945Z,28.17
2017-12-15T23:04:15.917Z,28.23
2017-12-15T23:06:41.892Z,29.23
2017-12-15T23:09:07.880Z,28.65
2017-12-15T23:11:33.837Z,31.43
2017-12-15T23:13:59.817Z,24.95
2017-12-15T23:16:26.688Z,28.85
2017-12-15T23:18:52.665Z,30.23
2017-12-15T23:21:18.632Z,28.00
2017-12-15T23:23:44.665Z,28.55
2017-12-15T23:26:10.684Z,31.73
2017-12-15T23:28:36.645Z,27.92
2017-12-15T23:31:02.685Z,28.30
2017-12-15T23:33:28.665Z,30.67
2017-12-15T23:35:54.664Z,30.03
2017-12-15T23:38:20.637Z,29.63
2017-12-15T23:40:46.604Z,31.08
2017-12-15T23:43:12.941Z,31.45
2017-12-15T23:45:38.901Z,32.20
2017-12-15T23:48:04.904Z,29.65
2017-12-15T23:50:31.920Z,31.80
2017-12-15T23:52:57.883Z,35.15
2017-12-15T23:55:36.289Z,32.30
2017-12-15T23:58:02.206Z,34.97
